createdAt,value
2023-09-11T00:00:23.000Z,18.388888888888886
2023-09-11T00:00:43.000Z,18.388888888888886
2023-09-11T00:01:13.000Z,18.277777777777782
2023-09-11T00:01:53.000Z,18.277777777777782
2023-09-11T00:02:19.000Z,18.277777777777782
2023-09-11T00:02:47.000Z,18.277777777777782
2023-09-11T00:03:03.000Z,18.277777777777782
2023-09-11T00:03:23.000Z,18.277777777777782
2023-09-11T00:03:53.000Z,18.277777777777782
2023-09-11T00:04:23.000Z,18.277777777777782
2023-09-11T00:04:58.000Z,18.277777777777782
2023-09-11T00:05:28.000Z,18.277777777777782
2023-09-11T00:05:53.000Z,18.277777777777782
2023-09-11T00:06:33.000Z,18.277777777777782
2023-09-11T00:06:54.000Z,18.388888888888886
2023-09-11T00:07:23.000Z,18.388888888888886
2023-09-11T00:07:51.000Z,18.388888888888886
2023-09-11T00:08:08.000Z,18.388888888888886
2023-09-11T00:08:43.000Z,18.388888888888886
2023-09-11T00:09:14.000Z,18.388888888888886
2023-09-11T00:09:58.000Z,18.388888888888886
2023-09-11T00:10:20.000Z,18.388888888888886
2023-09-11T00:10:48.000Z,18.388888888888886
2023-09-11T00:11:23.000Z,18.388888888888886
2023-09-11T00:12:03.000Z,18.388888888888886
2023-09-11T00:12:26.000Z,18.388888888888886
2023-09-11T00:12:53.000Z,18.388888888888886
2023-09-11T00:13:23.000Z,18.277777777777782
2023-09-11T00:13:53.000Z,18.277777777777782
2023-09-11T00:14:19.000Z,18.277777777777782
2023-09-11T00:14:47.000Z,18.277777777777782
2023-09-11T00:15:13.000Z,18.277777777777782
2023-09-11T00:15:39.000Z,18.277777777777782
2023-09-11T00:16:08.000Z,18.388888888888886
2023-09-11T00:16:43.000Z,18.388888888888886
2023-09-11T00:17:13.000Z,18.388888888888886
2023-09-11T00:17:43.000Z,18.388888888888886
2023-09-11T00:18:18.000Z,18.388888888888886
2023-09-11T00:18:48.000Z,18.388888888888886
2023-09-11T00:19:23.000Z,18.388888888888886
2023-09-11T00:19:53.000Z,18.277777777777782
2023-09-11T00:20:23.000Z,18.22222222222222
2023-09-11T00:20:59.000Z,18.22222222222222
2023-09-11T00:21:28.000Z,18.22222222222222
2023-09-11T00:21:53.000Z,18.22222222222222
2023-09-11T00:22:19.000Z,18.22222222222222
2023-09-11T00:22:47.000Z,18.22222222222222
2023-09-11T00:23:13.000Z,18.22222222222222
2023-09-11T00:23:39.000Z,18.22222222222222
2023-09-11T00:24:03.000Z,18.22222222222222
2023-09-11T00:24:26.000Z,18.22222222222222
2023-09-11T00:24:53.000Z,18.22222222222222
2023-09-11T00:25:23.000Z,18.22222222222222
2023-09-11T00:25:53.000Z,18.22222222222222
2023-09-11T00:26:19.000Z,18.22222222222222
2023-09-11T00:26:47.000Z,18.22222222222222
2023-09-11T00:27:13.000Z,18.22222222222222
2023-09-11T00:27:38.000Z,18.22222222222222
2023-09-11T00:28:07.000Z,18.22222222222222
2023-09-11T00:28:23.000Z,18.22222222222222
2023-09-11T00:28:58.000Z,18.22222222222222
2023-09-11T00:29:28.000Z,18.22222222222222
2023-09-11T00:30:01.000Z,18.22222222222222
2023-09-11T00:30:33.000Z,18.22222222222222
2023-09-11T00:30:54.000Z,18.22222222222222
2023-09-11T00:31:24.000Z,18.111111111111107
2023-09-11T00:31:53.000Z,18.111111111111107
2023-09-11T00:32:33.000Z,18.111111111111107
2023-09-11T00:32:59.000Z,18.111111111111107
2023-09-11T00:33:30.000Z,18.111111111111107
2023-09-11T00:33:53.000Z,18.111111111111107
2023-09-11T00:34:18.000Z,18.111111111111107
2023-09-11T00:34:48.000Z,18.111111111111107
2023-09-11T00:35:23.000Z,18.111111111111107
2023-09-11T00:35:53.000Z,18.111111111111107
2023-09-11T00:36:23.000Z,18.111111111111107
2023-09-11T00:36:58.000Z,18.111111111111107
2023-09-11T00:37:28.000Z,18.111111111111107
2023-09-11T00:38:01.000Z,18.111111111111107
2023-09-11T00:38:33.000Z,18.111111111111107
2023-09-11T00:38:55.000Z,18.111111111111107
2023-09-11T00:39:23.000Z,18.111111111111107
2023-09-11T00:39:53.000Z,18.111111111111107
2023-09-11T00:40:23.000Z,18.111111111111107
2023-09-11T00:40:58.000Z,18.111111111111107
2023-09-11T00:41:28.000Z,18.111111111111107
2023-09-11T00:41:53.000Z,18.111111111111107
2023-09-11T00:42:18.000Z,18.111111111111107
2023-09-11T00:42:48.000Z,18.111111111111107
2023-09-11T00:43:23.000Z,18.111111111111107
2023-09-11T00:43:54.000Z,18.111111111111107
2023-09-11T00:44:28.000Z,18.111111111111107
2023-09-11T00:44:58.000Z,18.111111111111107
2023-09-11T00:45:28.000Z,18.111111111111107
2023-09-11T00:45:53.000Z,18.111111111111107
2023-09-11T00:46:18.000Z,18.111111111111107
2023-09-11T00:46:48.000Z,18.111111111111107
2023-09-11T00:47:23.000Z,18.111111111111107
2023-09-11T00:47:53.000Z,18.111111111111107
2023-09-11T00:48:23.000Z,18.22222222222222
2023-09-11T00:48:58.000Z,18.22222222222222
2023-09-11T00:49:38.000Z,18.22222222222222
2023-09-11T00:50:04.000Z,18.22222222222222
2023-09-11T00:50:33.000Z,18.111111111111107
2023-09-11T00:50:58.000Z,18.111111111111107
2023-09-11T00:51:23.000Z,18.111111111111107
2023-09-11T00:51:51.000Z,18.000000000000004
2023-09-11T00:52:14.000Z,18.000000000000004
2023-09-11T00:52:43.000Z,18.000000000000004
2023-09-11T00:53:08.000Z,18.000000000000004
2023-09-11T00:53:28.000Z,18.000000000000004
2023-09-11T00:53:53.000Z,18.000000000000004
2023-09-11T00:54:18.000Z,18.111111111111107
2023-09-11T00:54:48.000Z,18.111111111111107
2023-09-11T00:55:23.000Z,18.111111111111107
2023-09-11T00:55:53.000Z,18.111111111111107
2023-09-11T00:56:23.000Z,18.000000000000004
2023-09-11T00:56:59.000Z,18.000000000000004
2023-09-11T00:57:27.000Z,18.000000000000004
2023-09-11T00:57:43.000Z,18.000000000000004
2023-09-11T00:58:03.000Z,18.000000000000004
2023-09-11T00:58:31.000Z,18.000000000000004
2023-09-11T00:58:58.000Z,18.000000000000004
2023-09-11T00:59:23.000Z,18.000000000000004
2023-09-11T00:59:53.000Z,18.000000000000004
2023-09-11T01:00:23.000Z,18.000000000000004
2023-09-11T01:00:43.000Z,18.000000000000004
2023-09-11T01:01:13.000Z,18.111111111111107
2023-09-11T01:01:43.000Z,18.111111111111107
2023-09-11T01:02:03.000Z,18.111111111111107
2023-09-11T01:02:33.000Z,18.111111111111107
2023-09-11T01:02:54.000Z,18.111111111111107
2023-09-11T01:03:23.000Z,18.111111111111107
2023-09-11T01:03:53.000Z,18.111111111111107
2023-09-11T01:04:23.000Z,18.000000000000004
2023-09-11T01:04:43.000Z,18.000000000000004
2023-09-11T01:05:14.000Z,18.000000000000004
2023-09-11T01:05:48.000Z,18.000000000000004
2023-09-11T01:06:18.000Z,18.000000000000004
2023-09-11T01:06:48.000Z,18.000000000000004
2023-09-11T01:07:23.000Z,17.88888888888889
2023-09-11T01:07:53.000Z,17.88888888888889
2023-09-11T01:08:23.000Z,17.88888888888889
2023-09-11T01:08:58.000Z,17.88888888888889
2023-09-11T01:09:28.000Z,17.88888888888889
2023-09-11T01:09:53.000Z,17.88888888888889
2023-09-11T01:10:18.000Z,17.88888888888889
2023-09-11T01:10:49.000Z,17.88888888888889
2023-09-11T01:11:23.000Z,17.88888888888889
2023-09-11T01:12:03.000Z,17.88888888888889
2023-09-11T01:12:26.000Z,17.88888888888889
2023-09-11T01:12:53.000Z,17.88888888888889
2023-09-11T01:13:23.000Z,18.000000000000004
2023-09-11T01:13:53.000Z,18.000000000000004
2023-09-11T01:14:18.000Z,18.000000000000004
2023-09-11T01:14:48.000Z,18.000000000000004
2023-09-11T01:15:23.000Z,18.000000000000004
2023-09-11T01:15:53.000Z,18.000000000000004
2023-09-11T01:16:23.000Z,17.88888888888889
2023-09-11T01:16:44.000Z,17.88888888888889
2023-09-11T01:17:13.000Z,17.88888888888889
2023-09-11T01:17:43.000Z,17.88888888888889
2023-09-11T01:18:03.000Z,17.88888888888889
2023-09-11T01:18:33.000Z,17.88888888888889
2023-09-11T01:18:54.000Z,17.88888888888889
2023-09-11T01:19:23.000Z,17.88888888888889
2023-09-11T01:20:03.000Z,17.88888888888889
2023-09-11T01:20:26.000Z,17.88888888888889
2023-09-11T01:20:53.000Z,17.88888888888889
2023-09-11T01:21:23.000Z,17.88888888888889
2023-09-11T01:21:43.000Z,17.88888888888889
2023-09-11T01:22:03.000Z,17.88888888888889
2023-09-11T01:22:33.000Z,17.88888888888889
2023-09-11T01:22:55.000Z,17.88888888888889
2023-09-11T01:23:23.000Z,17.88888888888889
2023-09-11T01:23:53.000Z,17.88888888888889
2023-09-11T01:24:23.000Z,17.88888888888889
2023-09-11T01:24:43.000Z,17.88888888888889
2023-09-11T01:25:12.000Z,17.88888888888889
2023-09-11T01:25:43.000Z,17.88888888888889
2023-09-11T01:26:03.000Z,17.88888888888889
2023-09-11T01:26:33.000Z,18.000000000000004
2023-09-11T01:26:55.000Z,18.000000000000004
2023-09-11T01:27:23.000Z,18.000000000000004
2023-09-11T01:27:53.000Z,18.000000000000004
2023-09-11T01:28:23.000Z,18.000000000000004
2023-09-11T01:28:43.000Z,18.000000000000004
2023-09-11T01:29:13.000Z,18.000000000000004
2023-09-11T01:29:43.000Z,18.000000000000004
2023-09-11T01:30:03.000Z,18.111111111111107
2023-09-11T01:30:33.000Z,18.111111111111107
2023-09-11T01:30:54.000Z,18.111111111111107
2023-09-11T01:31:23.000Z,18.111111111111107
2023-09-11T01:31:54.000Z,18.111111111111107
2023-09-11T01:32:28.000Z,18.111111111111107
2023-09-11T01:32:58.000Z,18.111111111111107
2023-09-11T01:33:28.000Z,18.111111111111107
2023-09-11T01:33:53.000Z,18.111111111111107
2023-09-11T01:34:18.000Z,18.111111111111107
2023-09-11T01:34:48.000Z,18.111111111111107
2023-09-11T01:35:24.000Z,18.111111111111107
2023-09-11T01:35:53.000Z,18.111111111111107
2023-09-11T01:36:23.000Z,18.111111111111107
2023-09-11T01:36:43.000Z,18.111111111111107
2023-09-11T01:37:12.000Z,18.000000000000004
2023-09-11T01:37:43.000Z,18.000000000000004
2023-09-11T01:38:03.000Z,18.000000000000004
2023-09-11T01:38:31.000Z,17.88888888888889
2023-09-11T01:38:58.000Z,17.88888888888889
2023-09-11T01:39:23.000Z,17.88888888888889
2023-09-11T01:39:51.000Z,17.77777777777778
2023-09-11T01:40:14.000Z,17.77777777777778
2023-09-11T01:40:43.000Z,17.77777777777778
2023-09-11T01:41:13.000Z,17.77777777777778
2023-09-11T01:41:43.000Z,17.77777777777778
2023-09-11T01:42:18.000Z,17.72222222222222
2023-09-11T01:42:48.000Z,17.72222222222222
2023-09-11T01:43:23.000Z,17.77777777777778
2023-09-11T01:43:53.000Z,17.77777777777778
2023-09-11T01:44:23.000Z,17.72222222222222
2023-09-11T01:44:58.000Z,17.72222222222222
2023-09-11T01:45:27.000Z,17.72222222222222
2023-09-11T01:45:43.000Z,17.72222222222222
2023-09-11T01:46:18.000Z,17.72222222222222
2023-09-11T01:46:48.000Z,17.72222222222222
2023-09-11T01:47:23.000Z,17.72222222222222
2023-09-11T01:47:53.000Z,17.72222222222222
2023-09-11T01:48:23.000Z,17.72222222222222
2023-09-11T01:48:58.000Z,17.72222222222222
2023-09-11T01:49:28.000Z,17.61111111111111
2023-09-11T01:49:53.000Z,17.61111111111111
2023-09-11T01:50:18.000Z,17.61111111111111
2023-09-11T01:50:58.000Z,17.61111111111111
2023-09-11T01:51:23.000Z,17.61111111111111
2023-09-11T01:51:51.000Z,17.61111111111111
2023-09-11T01:52:14.000Z,17.5
2023-09-11T01:52:39.000Z,17.5
2023-09-11T01:53:08.000Z,17.5
2023-09-11T01:53:38.000Z,17.61111111111111
2023-09-11T01:54:04.000Z,17.61111111111111
2023-09-11T01:54:31.000Z,17.61111111111111
2023-09-11T01:54:58.000Z,17.61111111111111
2023-09-11T01:55:23.000Z,17.61111111111111
2023-09-11T01:55:51.000Z,17.61111111111111
2023-09-11T01:56:14.000Z,17.61111111111111
2023-09-11T01:56:43.000Z,17.61111111111111
2023-09-11T01:57:13.000Z,17.61111111111111
2023-09-11T01:57:43.000Z,17.61111111111111
2023-09-11T01:58:18.000Z,17.72222222222222
2023-09-11T01:58:48.000Z,17.72222222222222
2023-09-11T01:59:23.000Z,17.72222222222222
2023-09-11T01:59:53.000Z,17.72222222222222
2023-09-11T02:00:23.000Z,17.72222222222222
2023-09-11T02:00:58.000Z,17.72222222222222
2023-09-11T02:01:28.000Z,17.72222222222222
2023-09-11T02:01:53.000Z,17.72222222222222
2023-09-11T02:02:19.000Z,17.72222222222222
2023-09-11T02:02:48.000Z,17.72222222222222
2023-09-11T02:03:23.000Z,17.72222222222222
2023-09-11T02:03:53.000Z,17.72222222222222
2023-09-11T02:04:23.000Z,17.72222222222222
2023-09-11T02:04:43.000Z,17.72222222222222
2023-09-11T02:05:12.000Z,17.72222222222222
2023-09-11T02:05:43.000Z,17.72222222222222
2023-09-11T02:06:04.000Z,17.72222222222222
2023-09-11T02:06:33.000Z,17.72222222222222
2023-09-11T02:06:54.000Z,17.72222222222222
2023-09-11T02:07:23.000Z,17.72222222222222
2023-09-11T02:07:51.000Z,17.72222222222222
2023-09-11T02:08:14.000Z,17.72222222222222
2023-09-11T02:08:39.000Z,17.72222222222222
2023-09-11T02:09:08.000Z,17.72222222222222
2023-09-11T02:09:30.000Z,17.72222222222222
2023-09-11T02:09:58.000Z,17.72222222222222
2023-09-11T02:10:20.000Z,17.72222222222222
2023-09-11T02:10:48.000Z,17.72222222222222
2023-09-11T02:11:23.000Z,17.72222222222222
2023-09-11T02:11:53.000Z,17.77777777777778
2023-09-11T02:12:23.000Z,17.77777777777778
2023-09-11T02:12:43.000Z,17.77777777777778
2023-09-11T02:13:12.000Z,17.77777777777778
2023-09-11T02:13:43.000Z,17.77777777777778
2023-09-11T02:14:03.000Z,17.77777777777778
2023-09-11T02:14:33.000Z,17.77777777777778
2023-09-11T02:14:54.000Z,17.77777777777778
2023-09-11T02:15:33.000Z,17.72222222222222
2023-09-11T02:16:03.000Z,17.72222222222222
2023-09-11T02:16:25.000Z,17.72222222222222
2023-09-11T02:16:53.000Z,17.72222222222222
2023-09-11T02:17:13.000Z,17.72222222222222
2023-09-11T02:17:43.000Z,17.72222222222222
2023-09-11T02:18:03.000Z,17.72222222222222
2023-09-11T02:18:33.000Z,17.61111111111111
2023-09-11T02:18:54.000Z,17.61111111111111
2023-09-11T02:19:23.000Z,17.61111111111111
2023-09-11T02:19:53.000Z,17.61111111111111
2023-09-11T02:20:23.000Z,17.61111111111111
2023-09-11T02:20:43.000Z,17.61111111111111
2023-09-11T02:21:13.000Z,17.72222222222222
2023-09-11T02:21:43.000Z,17.72222222222222
2023-09-11T02:22:03.000Z,17.72222222222222
2023-09-11T02:22:34.000Z,17.72222222222222
2023-09-11T02:22:58.000Z,17.61111111111111
2023-09-11T02:23:23.000Z,17.61111111111111
2023-09-11T02:23:51.000Z,17.61111111111111
2023-09-11T02:24:14.000Z,17.61111111111111
2023-09-11T02:24:43.000Z,17.61111111111111
2023-09-11T02:25:08.000Z,17.61111111111111
2023-09-11T02:25:31.000Z,17.61111111111111
2023-09-11T02:25:58.000Z,17.61111111111111
2023-09-11T02:26:20.000Z,17.61111111111111
2023-09-11T02:26:48.000Z,17.72222222222222
2023-09-11T02:27:23.000Z,17.72222222222222
2023-09-11T02:27:53.000Z,17.72222222222222
2023-09-11T02:28:23.000Z,17.72222222222222
2023-09-11T02:28:43.000Z,17.72222222222222
2023-09-11T02:29:13.000Z,17.72222222222222
2023-09-11T02:29:43.000Z,17.72222222222222
2023-09-11T02:30:03.000Z,17.72222222222222
2023-09-11T02:30:33.000Z,17.72222222222222
2023-09-11T02:30:54.000Z,17.72222222222222
2023-09-11T02:31:23.000Z,17.61111111111111
2023-09-11T02:31:53.000Z,17.61111111111111
2023-09-11T02:32:25.000Z,17.61111111111111
2023-09-11T02:32:53.000Z,17.61111111111111
2023-09-11T02:33:23.000Z,17.61111111111111
2023-09-11T02:33:43.000Z,17.61111111111111
2023-09-11T02:34:18.000Z,17.61111111111111
2023-09-11T02:34:48.000Z,17.61111111111111
2023-09-11T02:35:23.000Z,17.61111111111111
2023-09-11T02:35:53.000Z,17.61111111111111
2023-09-11T02:36:23.000Z,17.72222222222222
2023-09-11T02:36:58.000Z,17.72222222222222
2023-09-11T02:37:28.000Z,17.72222222222222
2023-09-11T02:38:01.000Z,17.61111111111111
2023-09-11T02:38:33.000Z,17.61111111111111
2023-09-11T02:38:58.000Z,17.61111111111111
2023-09-11T02:39:23.000Z,17.61111111111111
2023-09-11T02:39:53.000Z,17.5
2023-09-11T02:40:23.000Z,17.5
2023-09-11T02:40:59.000Z,17.5
2023-09-11T02:41:28.000Z,17.5
2023-09-11T02:41:53.000Z,17.5
2023-09-11T02:42:18.000Z,17.5
2023-09-11T02:42:48.000Z,17.5
2023-09-11T02:43:23.000Z,17.5
2023-09-11T02:43:53.000Z,17.5
2023-09-11T02:44:23.000Z,17.5
2023-09-11T02:44:53.000Z,17.5
2023-09-11T02:45:23.000Z,17.38888888888889
2023-09-11T02:45:53.000Z,17.38888888888889
2023-09-11T02:46:19.000Z,17.38888888888889
2023-09-11T02:46:46.000Z,17.38888888888889
2023-09-11T02:47:23.000Z,17.38888888888889
2023-09-11T02:47:53.000Z,17.38888888888889
2023-09-11T02:48:23.000Z,17.5
2023-09-11T02:48:58.000Z,17.5
2023-09-11T02:49:28.000Z,17.5
2023-09-11T02:49:53.000Z,17.5
2023-09-11T02:50:18.000Z,17.5
2023-09-11T02:50:48.000Z,17.38888888888889
2023-09-11T02:51:23.000Z,17.38888888888889
2023-09-11T02:51:53.000Z,17.38888888888889
2023-09-11T02:52:23.000Z,17.38888888888889
2023-09-11T02:52:58.000Z,17.38888888888889
2023-09-11T02:53:28.000Z,17.38888888888889
2023-09-11T02:53:54.000Z,17.38888888888889
2023-09-11T02:54:18.000Z,17.38888888888889
2023-09-11T02:54:48.000Z,17.38888888888889
2023-09-11T02:55:23.000Z,17.38888888888889
2023-09-11T02:55:53.000Z,17.38888888888889
2023-09-11T02:56:23.000Z,17.38888888888889
2023-09-11T02:56:58.000Z,17.38888888888889
2023-09-11T02:57:26.000Z,17.38888888888889
2023-09-11T02:57:43.000Z,17.38888888888889
2023-09-11T02:58:18.000Z,17.38888888888889
2023-09-11T02:58:48.000Z,17.38888888888889
2023-09-11T02:59:23.000Z,17.38888888888889
2023-09-11T03:00:03.000Z,17.27777777777778
2023-09-11T03:00:33.000Z,17.27777777777778
2023-09-11T03:00:58.000Z,17.27777777777778
2023-09-11T03:01:28.000Z,17.27777777777778
2023-09-11T03:02:01.000Z,17.27777777777778
2023-09-11T03:02:31.000Z,17.27777777777778
2023-09-11T03:02:58.000Z,17.27777777777778
2023-09-11T03:03:23.000Z,17.27777777777778
2023-09-11T03:03:50.000Z,17.38888888888889
2023-09-11T03:04:14.000Z,17.38888888888889
2023-09-11T03:04:43.000Z,17.38888888888889
2023-09-11T03:05:08.000Z,17.38888888888889
2023-09-11T03:05:30.000Z,17.38888888888889
2023-09-11T03:05:58.000Z,17.38888888888889
2023-09-11T03:06:20.000Z,17.38888888888889
2023-09-11T03:06:48.000Z,17.38888888888889
2023-09-11T03:07:23.000Z,17.38888888888889
2023-09-11T03:07:54.000Z,17.38888888888889
2023-09-11T03:08:23.000Z,17.38888888888889
2023-09-11T03:08:58.000Z,17.38888888888889
2023-09-11T03:09:28.000Z,17.5
2023-09-11T03:09:53.000Z,17.5
2023-09-11T03:10:18.000Z,17.5
2023-09-11T03:10:48.000Z,17.5
2023-09-11T03:11:23.000Z,17.5
2023-09-11T03:11:50.000Z,17.5
2023-09-11T03:12:14.000Z,17.5
2023-09-11T03:12:43.000Z,17.38888888888889
2023-09-11T03:13:13.000Z,17.38888888888889
2023-09-11T03:13:43.000Z,17.38888888888889
2023-09-11T03:14:18.000Z,17.38888888888889
2023-09-11T03:14:48.000Z,17.5
2023-09-11T03:15:23.000Z,17.5
2023-09-11T03:15:53.000Z,17.5
2023-09-11T03:16:23.000Z,17.5
2023-09-11T03:16:58.000Z,17.5
2023-09-11T03:17:28.000Z,17.5
2023-09-11T03:18:03.000Z,17.5
2023-09-11T03:18:30.000Z,17.38888888888889
2023-09-11T03:18:58.000Z,17.38888888888889
2023-09-11T03:19:23.000Z,17.5
2023-09-11T03:19:53.000Z,17.5
2023-09-11T03:20:23.000Z,17.5
2023-09-11T03:20:43.000Z,17.5
2023-09-11T03:21:13.000Z,17.5
2023-09-11T03:21:43.000Z,17.5
2023-09-11T03:22:03.000Z,17.5
2023-09-11T03:22:33.000Z,17.5
2023-09-11T03:22:54.000Z,17.5
2023-09-11T03:23:23.000Z,17.5
2023-09-11T03:23:53.000Z,17.5
2023-09-11T03:24:23.000Z,17.5
2023-09-11T03:24:43.000Z,17.5
2023-09-11T03:25:08.000Z,17.5
2023-09-11T03:25:30.000Z,17.5
2023-09-11T03:25:58.000Z,17.5
2023-09-11T03:26:18.000Z,17.5
2023-09-11T03:26:48.000Z,17.5
2023-09-11T03:27:23.000Z,17.5
2023-09-11T03:27:53.000Z,17.5
2023-09-11T03:28:23.000Z,17.5
2023-09-11T03:28:43.000Z,17.5
2023-09-11T03:29:13.000Z,17.5
2023-09-11T03:29:43.000Z,17.5
2023-09-11T03:30:03.000Z,17.5
2023-09-11T03:30:33.000Z,17.5
2023-09-11T03:30:55.000Z,17.5
2023-09-11T03:31:23.000Z,17.5
2023-09-11T03:31:50.000Z,17.5
2023-09-11T03:32:14.000Z,17.5
2023-09-11T03:32:43.000Z,17.5
2023-09-11T03:33:12.000Z,17.5
2023-09-11T03:33:43.000Z,17.5
2023-09-11T03:34:03.000Z,17.5
2023-09-11T03:34:33.000Z,17.5
2023-09-11T03:34:54.000Z,17.5
2023-09-11T03:35:23.000Z,17.61111111111111
2023-09-11T03:35:53.000Z,17.61111111111111
2023-09-11T03:36:23.000Z,17.61111111111111
2023-09-11T03:36:58.000Z,17.61111111111111
2023-09-11T03:37:28.000Z,17.61111111111111
2023-09-11T03:37:53.000Z,17.61111111111111
2023-09-11T03:38:18.000Z,17.5
2023-09-11T03:38:48.000Z,17.5
2023-09-11T03:39:23.000Z,17.5
2023-09-11T03:39:53.000Z,17.5
2023-09-11T03:40:23.000Z,17.5
2023-09-11T03:40:43.000Z,17.5
2023-09-11T03:41:12.000Z,17.38888888888889
2023-09-11T03:41:43.000Z,17.38888888888889
2023-09-11T03:42:18.000Z,17.5
2023-09-11T03:42:48.000Z,17.5
2023-09-11T03:43:33.000Z,17.38888888888889
2023-09-11T03:44:03.000Z,17.38888888888889
2023-09-11T03:44:23.000Z,17.38888888888889
2023-09-11T03:44:58.000Z,17.38888888888889
2023-09-11T03:45:28.000Z,17.38888888888889
2023-09-11T03:45:53.000Z,17.38888888888889
2023-09-11T03:46:18.000Z,17.38888888888889
2023-09-11T03:46:48.000Z,17.38888888888889
2023-09-11T03:47:23.000Z,17.38888888888889
2023-09-11T03:47:53.000Z,17.38888888888889
2023-09-11T03:48:23.000Z,17.38888888888889
2023-09-11T03:48:43.000Z,17.38888888888889
2023-09-11T03:49:22.000Z,17.38888888888889
2023-09-11T03:49:53.000Z,17.38888888888889
2023-09-11T03:50:18.000Z,17.38888888888889
2023-09-11T03:50:48.000Z,17.38888888888889
2023-09-11T03:51:23.000Z,17.38888888888889
2023-09-11T03:51:53.000Z,17.38888888888889
2023-09-11T03:52:23.000Z,17.38888888888889
2023-09-11T03:52:44.000Z,17.38888888888889
2023-09-11T03:53:12.000Z,17.38888888888889
2023-09-11T03:53:43.000Z,17.38888888888889
2023-09-11T03:54:03.000Z,17.38888888888889
2023-09-11T03:54:33.000Z,17.5
2023-09-11T03:54:54.000Z,17.5
2023-09-11T03:55:23.000Z,17.5
2023-09-11T03:55:53.000Z,17.38888888888889
2023-09-11T03:56:23.000Z,17.38888888888889
2023-09-11T03:56:58.000Z,17.38888888888889
2023-09-11T03:57:28.000Z,17.38888888888889
2023-09-11T03:58:03.000Z,17.38888888888889
2023-09-11T03:58:33.000Z,17.38888888888889
2023-09-11T03:58:54.000Z,17.38888888888889
2023-09-11T03:59:23.000Z,17.38888888888889
2023-09-11T03:59:53.000Z,17.38888888888889
2023-09-11T04:00:23.000Z,17.38888888888889
2023-09-11T04:00:43.000Z,17.38888888888889
2023-09-11T04:01:08.000Z,17.27777777777778
2023-09-11T04:01:28.000Z,17.27777777777778
2023-09-11T04:01:53.000Z,17.27777777777778
2023-09-11T04:02:18.000Z,17.27777777777778
2023-09-11T04:02:48.000Z,17.27777777777778
2023-09-11T04:03:23.000Z,17.27777777777778
2023-09-11T04:03:53.000Z,17.27777777777778
2023-09-11T04:04:23.000Z,17.27777777777778
2023-09-11T04:04:43.000Z,17.27777777777778
2023-09-11T04:05:12.000Z,17.27777777777778
2023-09-11T04:05:43.000Z,17.27777777777778
2023-09-11T04:06:14.000Z,17.27777777777778
2023-09-11T04:06:43.000Z,17.27777777777778
2023-09-11T04:07:13.000Z,17.27777777777778
2023-09-11T04:07:38.000Z,17.27777777777778
2023-09-11T04:08:06.000Z,17.27777777777778
2023-09-11T04:08:43.000Z,17.22222222222222
2023-09-11T04:09:13.000Z,17.22222222222222
2023-09-11T04:09:43.000Z,17.22222222222222
2023-09-11T04:10:03.000Z,17.27777777777778
2023-09-11T04:10:33.000Z,17.27777777777778
2023-09-11T04:10:54.000Z,17.27777777777778
2023-09-11T04:11:23.000Z,17.27777777777778
2023-09-11T04:11:53.000Z,17.27777777777778
2023-09-11T04:12:23.000Z,17.27777777777778
2023-09-11T04:12:43.000Z,17.27777777777778
2023-09-11T04:13:08.000Z,17.27777777777778
2023-09-11T04:13:30.000Z,17.27777777777778
2023-09-11T04:13:58.000Z,17.27777777777778
2023-09-11T04:14:21.000Z,17.27777777777778
2023-09-11T04:14:48.000Z,17.27777777777778
2023-09-11T04:15:23.000Z,17.27777777777778
2023-09-11T04:16:03.000Z,17.38888888888889
2023-09-11T04:16:26.000Z,17.38888888888889
2023-09-11T04:16:53.000Z,17.38888888888889
2023-09-11T04:17:23.000Z,17.38888888888889
2023-09-11T04:17:53.000Z,17.27777777777778
2023-09-11T04:18:19.000Z,17.27777777777778
2023-09-11T04:18:46.000Z,17.27777777777778
2023-09-11T04:19:13.000Z,17.27777777777778
2023-09-11T04:19:39.000Z,17.27777777777778
2023-09-11T04:20:10.000Z,17.27777777777778
2023-09-11T04:20:43.000Z,17.27777777777778
2023-09-11T04:21:12.000Z,17.27777777777778
2023-09-11T04:21:43.000Z,17.27777777777778
2023-09-11T04:22:18.000Z,17.27777777777778
2023-09-11T04:22:48.000Z,17.27777777777778
2023-09-11T04:23:23.000Z,17.27777777777778
2023-09-11T04:23:53.000Z,17.27777777777778
2023-09-11T04:24:23.000Z,17.27777777777778
2023-09-11T04:24:53.000Z,17.27777777777778
2023-09-11T04:25:10.000Z,17.27777777777778
2023-09-11T04:25:28.000Z,17.27777777777778
2023-09-11T04:25:53.000Z,17.27777777777778
2023-09-11T04:26:18.000Z,17.27777777777778
2023-09-11T04:26:48.000Z,17.27777777777778
2023-09-11T04:27:23.000Z,17.27777777777778
2023-09-11T04:27:53.000Z,17.27777777777778
2023-09-11T04:28:23.000Z,17.27777777777778
2023-09-11T04:28:58.000Z,17.27777777777778
2023-09-11T04:29:28.000Z,17.27777777777778
2023-09-11T04:29:53.000Z,17.27777777777778
2023-09-11T04:30:18.000Z,17.27777777777778
2023-09-11T04:30:48.000Z,17.27777777777778
2023-09-11T04:31:23.000Z,17.27777777777778
2023-09-11T04:31:53.000Z,17.27777777777778
2023-09-11T04:32:23.000Z,17.27777777777778
2023-09-11T04:32:58.000Z,17.27777777777778
2023-09-11T04:33:28.000Z,17.27777777777778
2023-09-11T04:34:01.000Z,17.27777777777778
2023-09-11T04:34:33.000Z,17.27777777777778